sensor_id;sensor_type;location;lat;lon;timestamp;P1;durP1;ratioP1;P2;durP2;ratioP2
6832;SDS011;3454;42.654;23.378;2023-01-25T00:02:03;4.93;;;3.03;;
6832;SDS011;3454;42.654;23.378;2023-01-25T00:04:29;5.67;;;3.20;;
6832;SDS011;3454;42.654;23.378;2023-01-25T00:06:55;7.43;;;3.70;;
6832;SDS011;3454;42.654;23.378;2023-01-25T00:09:21;4.67;;;3.23;;
6832;SDS011;3454;42.654;23.378;2023-01-25T00:11:47;5.27;;;3.70;;
6832;SDS011;3454;42.654;23.378;2023-01-25T00:14:13;6.83;;;4.17;;
6832;SDS011;3454;42.654;23.378;2023-01-25T00:16:39;6.37;;;3.47;;
6832;SDS011;3454;42.654;23.378;2023-01-25T00:19:05;6.30;;;3.63;;
6832;SDS011;3454;42.654;23.378;2023-01-25T00:21:32;5.57;;;3.60;;
6832;SDS011;3454;42.654;23.378;2023-01-25T00:23:58;4.83;;;3.47;;
6832;SDS011;3454;42.654;23.378;2023-01-25T00:26:24;6.00;;;3.50;;
6832;SDS011;3454;42.654;23.378;2023-01-25T00:28:50;5.30;;;3.00;;
6832;SDS011;3454;42.654;23.378;2023-01-25T00:33:55;3.97;;;2.90;;
6832;SDS011;3454;42.654;23.378;2023-01-25T00:36:32;5.40;;;3.27;;
6832;SDS011;3454;42.654;23.378;2023-01-25T00:39:01;7.43;;;3.93;;
6832;SDS011;3454;42.654;23.378;2023-01-25T00:41:26;9.63;;;3.80;;
6832;SDS011;3454;42.654;23.378;2023-01-25T00:43:52;5.67;;;3.20;;
6832;SDS011;3454;42.654;23.378;2023-01-25T00:46:18;5.57;;;3.40;;
6832;SDS011;3454;42.654;23.378;2023-01-25T00:48:43;8.00;;;4.50;;
6832;SDS011;3454;42.654;23.378;2023-01-25T00:51:16;5.27;;;3.13;;
6832;SDS011;3454;42.654;23.378;2023-01-25T00:53:42;4.67;;;3.30;;
6832;SDS011;3454;42.654;23.378;2023-01-25T00:56:07;5.23;;;3.37;;
6832;SDS011;3454;42.654;23.378;2023-01-25T00:58:32;5.60;;;3.80;;
6832;SDS011;3454;42.654;23.378;2023-01-25T01:00:58;5.23;;;3.57;;
6832;SDS011;3454;42.654;23.378;2023-01-25T01:03:23;5.30;;;3.70;;
6832;SDS011;3454;42.654;23.378;2023-01-25T01:06:08;5.37;;;3.43;;
6832;SDS011;3454;42.654;23.378;2023-01-25T01:08:37;5.47;;;3.50;;
6832;SDS011;3454;42.654;23.378;2023-01-25T01:11:04;6.07;;;3.30;;
6832;SDS011;3454;42.654;23.378;2023-01-25T01:13:32;5.43;;;3.03;;
6832;SDS011;3454;42.654;23.378;2023-01-25T01:16:01;5.67;;;3.20;;
6832;SDS011;3454;42.654;23.378;2023-01-25T01:18:35;5.90;;;2.83;;
6832;SDS011;3454;42.654;23.378;2023-01-25T01:21:02;5.33;;;3.40;;
6832;SDS011;3454;42.654;23.378;2023-01-25T01:23:28;5.97;;;3.10;;
6832;SDS011;3454;42.654;23.378;2023-01-25T01:25:54;4.43;;;2.83;;
6832;SDS011;3454;42.654;23.378;2023-01-25T01:28:19;3.63;;;2.73;;
6832;SDS011;3454;42.654;23.378;2023-01-25T01:30:45;3.43;;;2.47;;
6832;SDS011;3454;42.654;23.378;2023-01-25T01:33:11;5.27;;;2.73;;
6832;SDS011;3454;42.654;23.378;2023-01-25T01:35:36;5.63;;;3.40;;
6832;SDS011;3454;42.654;23.378;2023-01-25T01:38:02;6.20;;;2.57;;
6832;SDS011;3454;42.654;23.378;2023-01-25T01:40:27;4.83;;;3.10;;
6832;SDS011;3454;42.654;23.378;2023-01-25T01:49:00;4.03;;;2.70;;
6832;SDS011;3454;42.654;23.378;2023-01-25T01:51:00;4.07;;;2.90;;
6832;SDS011;3454;42.654;23.378;2023-01-25T01:53:32;3.60;;;2.43;;
6832;SDS011;3454;42.654;23.378;2023-01-25T01:55:59;4.17;;;2.57;;
6832;SDS011;3454;42.654;23.378;2023-01-25T01:58:28;3.17;;;2.17;;
6832;SDS011;3454;42.654;23.378;2023-01-25T02:00:55;2.37;;;2.13;;
6832;SDS011;3454;42.654;23.378;2023-01-25T02:03:21;2.73;;;1.93;;
6832;SDS011;3454;42.654;23.378;2023-01-25T02:08:19;5.03;;;2.17;;
6832;SDS011;3454;42.654;23.378;2023-01-25T02:10:45;2.50;;;1.80;;
6832;SDS011;3454;42.654;23.378;2023-01-25T02:13:13;3.60;;;2.10;;
6832;SDS011;3454;42.654;23.378;2023-01-25T02:15:48;3.53;;;2.10;;
6832;SDS011;3454;42.654;23.378;2023-01-25T02:18:16;2.70;;;1.90;;
6832;SDS011;3454;42.654;23.378;2023-01-25T02:20:44;3.13;;;2.07;;
6832;SDS011;3454;42.654;23.378;2023-01-25T02:23:20;1.97;;;1.73;;
6832;SDS011;3454;42.654;23.378;2023-01-25T02:26:07;2.63;;;1.90;;
6832;SDS011;3454;42.654;23.378;2023-01-25T02:31:06;3.03;;;2.00;;
6832;SDS011;3454;42.654;23.378;2023-01-25T02:33:31;3.97;;;2.00;;
6832;SDS011;3454;42.654;23.378;2023-01-25T02:38:37;1.90;;;1.50;;
6832;SDS011;3454;42.654;23.378;2023-01-25T02:41:07;7.20;;;2.03;;
6832;SDS011;3454;42.654;23.378;2023-01-25T02:43:42;3.33;;;1.90;;
6832;SDS011;3454;42.654;23.378;2023-01-25T02:46:15;2.83;;;2.20;;
6832;SDS011;3454;42.654;23.378;2023-01-25T02:48:53;4.23;;;2.53;;
6832;SDS011;3454;42.654;23.378;2023-01-25T02:51:20;3.27;;;1.83;;
6832;SDS011;3454;42.654;23.378;2023-01-25T02:53:47;2.80;;;1.90;;
6832;SDS011;3454;42.654;23.378;2023-01-25T02:56:13;2.37;;;1.67;;
6832;SDS011;3454;42.654;23.378;2023-01-25T02:58:38;5.27;;;2.73;;
6832;SDS011;3454;42.654;23.378;2023-01-25T03:01:04;3.27;;;2.00;;
6832;SDS011;3454;42.654;23.378;2023-01-25T03:03:29;3.23;;;2.27;;
6832;SDS011;3454;42.654;23.378;2023-01-25T03:05:55;4.13;;;2.33;;
6832;SDS011;3454;42.654;23.378;2023-01-25T03:08:20;3.00;;;2.10;;
6832;SDS011;3454;42.654;23.378;2023-01-25T03:10:46;2.60;;;1.90;;
6832;SDS011;3454;42.654;23.378;2023-01-25T03:13:11;2.27;;;1.90;;
6832;SDS011;3454;42.654;23.378;2023-01-25T03:15:36;2.40;;;1.70;;
6832;SDS011;3454;42.654;23.378;2023-01-25T03:18:02;5.60;;;2.30;;
6832;SDS011;3454;42.654;23.378;2023-01-25T03:20:27;3.60;;;2.20;;
6832;SDS011;3454;42.654;23.378;2023-01-25T03:22:53;4.47;;;2.67;;
6832;SDS011;3454;42.654;23.378;2023-01-25T03:25:19;4.67;;;2.90;;
6832;SDS011;3454;42.654;23.378;2023-01-25T03:27:44;4.57;;;2.30;;
6832;SDS011;3454;42.654;23.378;2023-01-25T03:30:11;2.43;;;1.97;;
6832;SDS011;3454;42.654;23.378;2023-01-25T03:32:36;2.63;;;2.00;;
6832;SDS011;3454;42.654;23.378;2023-01-25T03:35:02;3.00;;;2.30;;
6832;SDS011;3454;42.654;23.378;2023-01-25T03:37:28;3.97;;;2.30;;
6832;SDS011;3454;42.654;23.378;2023-01-25T03:39:56;3.50;;;2.17;;
6832;SDS011;3454;42.654;23.378;2023-01-25T03:42:22;2.57;;;2.03;;
6832;SDS011;3454;42.654;23.378;2023-01-25T03:44:48;3.10;;;1.87;;
6832;SDS011;3454;42.654;23.378;2023-01-25T03:47:13;3.63;;;2.10;;
6832;SDS011;3454;42.654;23.378;2023-01-25T03:49:40;4.57;;;2.40;;
6832;SDS011;3454;42.654;23.378;2023-01-25T03:52:05;3.03;;;2.10;;
6832;SDS011;3454;42.654;23.378;2023-01-25T03:54:31;3.07;;;2.07;;
6832;SDS011;3454;42.654;23.378;2023-01-25T03:56:57;4.37;;;3.00;;
6832;SDS011;3454;42.654;23.378;2023-01-25T03:59:22;3.93;;;2.63;;
6832;SDS011;3454;42.654;23.378;2023-01-25T04:01:48;3.57;;;2.40;;
6832;SDS011;3454;42.654;23.378;2023-01-25T04:04:14;3.00;;;2.50;;
6832;SDS011;3454;42.654;23.378;2023-01-25T04:06:39;2.17;;;1.60;;
6832;SDS011;3454;42.654;23.378;2023-01-25T04:09:05;3.17;;;2.20;;
6832;SDS011;3454;42.654;23.378;2023-01-25T04:11:30;4.10;;;2.53;;
6832;SDS011;3454;42.654;23.378;2023-01-25T04:13:56;2.60;;;2.07;;
6832;SDS011;3454;42.654;23.378;2023-01-25T04:16:21;2.47;;;1.70;;
6832;SDS011;3454;42.654;23.378;2023-01-25T04:18:47;5.17;;;1.90;;
6832;SDS011;3454;42.654;23.378;2023-01-25T04:21:12;3.97;;;2.40;;
6832;SDS011;3454;42.654;23.378;2023-01-25T04:23:38;3.60;;;2.10;;
6832;SDS011;3454;42.654;23.378;2023-01-25T04:26:04;3.40;;;2.60;;
6832;SDS011;3454;42.654;23.378;2023-01-25T04:28:31;2.73;;;2.00;;
6832;SDS011;3454;42.654;23.378;2023-01-25T04:30:57;3.93;;;2.73;;
6832;SDS011;3454;42.654;23.378;2023-01-25T04:33:23;2.27;;;2.07;;
6832;SDS011;3454;42.654;23.378;2023-01-25T04:35:49;3.30;;;2.23;;
6832;SDS011;3454;42.654;23.378;2023-01-25T04:38:15;2.93;;;2.27;;
6832;SDS011;3454;42.654;23.378;2023-01-25T04:40:40;19.50;;;10.67;;
6832;SDS011;3454;42.654;23.378;2023-01-25T04:43:06;2.70;;;1.90;;
6832;SDS011;3454;42.654;23.378;2023-01-25T04:45:32;2.87;;;1.70;;
6832;SDS011;3454;42.654;23.378;2023-01-25T04:48:00;2.43;;;2.07;;
6832;SDS011;3454;42.654;23.378;2023-01-25T04:50:28;2.60;;;1.93;;
6832;SDS011;3454;42.654;23.378;2023-01-25T04:52:54;5.60;;;3.83;;
6832;SDS011;3454;42.654;23.378;2023-01-25T04:55:20;4.20;;;2.63;;
6832;SDS011;3454;42.654;23.378;2023-01-25T04:57:49;3.57;;;2.17;;
6832;SDS011;3454;42.654;23.378;2023-01-25T05:00:16;4.43;;;1.80;;
6832;SDS011;3454;42.654;23.378;2023-01-25T05:02:42;2.63;;;1.57;;
6832;SDS011;3454;42.654;23.378;2023-01-25T05:05:08;3.07;;;1.90;;
6832;SDS011;3454;42.654;23.378;2023-01-25T05:07:35;2.97;;;2.00;;
6832;SDS011;3454;42.654;23.378;2023-01-25T05:10:00;20.70;;;12.67;;
6832;SDS011;3454;42.654;23.378;2023-01-25T05:12:25;9.27;;;5.07;;
6832;SDS011;3454;42.654;23.378;2023-01-25T05:14:51;5.50;;;2.50;;
6832;SDS011;3454;42.654;23.378;2023-01-25T05:17:17;3.07;;;1.63;;
6832;SDS011;3454;42.654;23.378;2023-01-25T05:19:42;4.47;;;2.60;;
6832;SDS011;3454;42.654;23.378;2023-01-25T05:22:15;2.60;;;1.90;;
6832;SDS011;3454;42.654;23.378;2023-01-25T05:24:42;10.33;;;6.00;;
6832;SDS011;3454;42.654;23.378;2023-01-25T05:27:10;3.37;;;2.27;;
6832;SDS011;3454;42.654;23.378;2023-01-25T05:29:39;12.70;;;7.70;;
6832;SDS011;3454;42.654;23.378;2023-01-25T05:32:12;2.23;;;1.80;;
6832;SDS011;3454;42.654;23.378;2023-01-25T05:34:42;2.97;;;1.70;;
6832;SDS011;3454;42.654;23.378;2023-01-25T05:37:09;2.10;;;1.70;;
6832;SDS011;3454;42.654;23.378;2023-01-25T05:39:36;4.07;;;2.13;;
6832;SDS011;3454;42.654;23.378;2023-01-25T05:42:02;7.37;;;2.30;;
6832;SDS011;3454;42.654;23.378;2023-01-25T05:44:27;2.83;;;2.00;;
6832;SDS011;3454;42.654;23.378;2023-01-25T05:46:53;2.97;;;1.57;;
6832;SDS011;3454;42.654;23.378;2023-01-25T05:49:18;4.30;;;1.90;;
6832;SDS011;3454;42.654;23.378;2023-01-25T05:51:44;3.03;;;1.67;;
6832;SDS011;3454;42.654;23.378;2023-01-25T05:54:12;2.40;;;1.80;;
6832;SDS011;3454;42.654;23.378;2023-01-25T05:56:39;2.00;;;1.50;;
6832;SDS011;3454;42.654;23.378;2023-01-25T05:59:04;3.10;;;1.63;;
6832;SDS011;3454;42.654;23.378;2023-01-25T06:01:30;2.53;;;1.77;;
6832;SDS011;3454;42.654;23.378;2023-01-25T06:03:56;2.60;;;1.87;;
6832;SDS011;3454;42.654;23.378;2023-01-25T06:06:22;2.50;;;2.00;;
6832;SDS011;3454;42.654;23.378;2023-01-25T06:08:48;2.63;;;1.90;;
6832;SDS011;3454;42.654;23.378;2023-01-25T06:11:15;2.80;;;1.73;;
6832;SDS011;3454;42.654;23.378;2023-01-25T06:13:42;3.30;;;1.77;;
6832;SDS011;3454;42.654;23.378;2023-01-25T06:16:08;3.67;;;2.50;;
6832;SDS011;3454;42.654;23.378;2023-01-25T06:18:34;3.13;;;2.03;;
6832;SDS011;3454;42.654;23.378;2023-01-25T06:21:01;3.30;;;2.40;;
6832;SDS011;3454;42.654;23.378;2023-01-25T06:23:27;2.70;;;2.10;;
6832;SDS011;3454;42.654;23.378;2023-01-25T06:25:56;2.80;;;2.50;;
6832;SDS011;3454;42.654;23.378;2023-01-25T06:28:27;4.33;;;2.80;;
6832;SDS011;3454;42.654;23.378;2023-01-25T06:30:53;4.07;;;2.90;;
6832;SDS011;3454;42.654;23.378;2023-01-25T06:33:19;3.80;;;2.63;;
6832;SDS011;3454;42.654;23.378;2023-01-25T06:35:44;4.60;;;3.57;;
6832;SDS011;3454;42.654;23.378;2023-01-25T06:38:11;8.37;;;5.57;;
6832;SDS011;3454;42.654;23.378;2023-01-25T06:40:36;4.97;;;3.10;;
6832;SDS011;3454;42.654;23.378;2023-01-25T06:43:07;4.57;;;2.70;;
6832;SDS011;3454;42.654;23.378;2023-01-25T06:45:34;3.87;;;2.97;;
6832;SDS011;3454;42.654;23.378;2023-01-25T06:47:59;4.00;;;3.03;;
6832;SDS011;3454;42.654;23.378;2023-01-25T06:50:25;2.97;;;2.50;;
6832;SDS011;3454;42.654;23.378;2023-01-25T06:52:52;4.70;;;3.03;;
6832;SDS011;3454;42.654;23.378;2023-01-25T06:55:18;6.43;;;2.60;;
6832;SDS011;3454;42.654;23.378;2023-01-25T06:57:44;4.33;;;2.80;;
6832;SDS011;3454;42.654;23.378;2023-01-25T07:00:11;4.10;;;2.47;;
6832;SDS011;3454;42.654;23.378;2023-01-25T07:02:37;5.07;;;3.23;;
6832;SDS011;3454;42.654;23.378;2023-01-25T07:05:03;5.90;;;3.00;;
6832;SDS011;3454;42.654;23.378;2023-01-25T07:07:28;7.77;;;3.50;;
6832;SDS011;3454;42.654;23.378;2023-01-25T07:09:54;4.20;;;2.93;;
6832;SDS011;3454;42.654;23.378;2023-01-25T07:12:20;3.03;;;2.63;;
6832;SDS011;3454;42.654;23.378;2023-01-25T07:14:46;6.53;;;3.27;;
6832;SDS011;3454;42.654;23.378;2023-01-25T07:17:14;4.63;;;3.37;;
6832;SDS011;3454;42.654;23.378;2023-01-25T07:19:39;4.50;;;2.60;;
6832;SDS011;3454;42.654;23.378;2023-01-25T07:22:05;7.13;;;3.13;;
6832;SDS011;3454;42.654;23.378;2023-01-25T07:24:30;4.50;;;2.97;;
6832;SDS011;3454;42.654;23.378;2023-01-25T07:26:56;6.07;;;3.50;;
6832;SDS011;3454;42.654;23.378;2023-01-25T07:29:21;7.27;;;3.73;;
6832;SDS011;3454;42.654;23.378;2023-01-25T07:31:47;8.03;;;3.77;;
6832;SDS011;3454;42.654;23.378;2023-01-25T07:34:13;6.33;;;3.30;;
6832;SDS011;3454;42.654;23.378;2023-01-25T07:36:39;4.83;;;3.43;;
6832;SDS011;3454;42.654;23.378;2023-01-25T07:39:05;6.07;;;3.70;;
6832;SDS011;3454;42.654;23.378;2023-01-25T07:41:34;5.73;;;3.80;;
6832;SDS011;3454;42.654;23.378;2023-01-25T07:43:59;5.97;;;4.00;;
6832;SDS011;3454;42.654;23.378;2023-01-25T07:46:24;4.87;;;3.50;;
6832;SDS011;3454;42.654;23.378;2023-01-25T07:48:51;7.30;;;4.20;;
6832;SDS011;3454;42.654;23.378;2023-01-25T07:51:18;7.90;;;3.77;;
6832;SDS011;3454;42.654;23.378;2023-01-25T07:54:00;8.23;;;4.77;;
6832;SDS011;3454;42.654;23.378;2023-01-25T07:56:28;9.20;;;4.47;;
6832;SDS011;3454;42.654;23.378;2023-01-25T07:58:56;7.80;;;4.03;;
6832;SDS011;3454;42.654;23.378;2023-01-25T08:01:23;5.37;;;3.87;;
6832;SDS011;3454;42.654;23.378;2023-01-25T08:03:50;6.37;;;3.90;;
6832;SDS011;3454;42.654;23.378;2023-01-25T08:06:16;6.70;;;4.03;;
6832;SDS011;3454;42.654;23.378;2023-01-25T08:08:47;5.90;;;3.83;;
6832;SDS011;3454;42.654;23.378;2023-01-25T08:11:15;8.00;;;4.63;;
6832;SDS011;3454;42.654;23.378;2023-01-25T08:13:44;9.10;;;4.53;;
6832;SDS011;3454;42.654;23.378;2023-01-25T08:16:14;6.97;;;4.07;;
6832;SDS011;3454;42.654;23.378;2023-01-25T08:18:40;5.93;;;4.33;;
6832;SDS011;3454;42.654;23.378;2023-01-25T08:21:06;5.63;;;3.90;;
6832;SDS011;3454;42.654;23.378;2023-01-25T08:23:31;11.03;;;4.37;;
6832;SDS011;3454;42.654;23.378;2023-01-25T08:26:00;5.87;;;3.93;;
6832;SDS011;3454;42.654;23.378;2023-01-25T08:28:27;6.63;;;4.50;;
6832;SDS011;3454;42.654;23.378;2023-01-25T08:30:52;7.07;;;4.60;;
6832;SDS011;3454;42.654;23.378;2023-01-25T08:33:17;6.00;;;4.17;;
6832;SDS011;3454;42.654;23.378;2023-01-25T08:35:52;6.13;;;4.80;;
6832;SDS011;3454;42.654;23.378;2023-01-25T08:38:18;9.20;;;4.70;;
6832;SDS011;3454;42.654;23.378;2023-01-25T08:40:44;8.07;;;4.60;;
6832;SDS011;3454;42.654;23.378;2023-01-25T08:43:09;6.60;;;4.33;;
6832;SDS011;3454;42.654;23.378;2023-01-25T08:45:34;5.73;;;4.03;;
6832;SDS011;3454;42.654;23.378;2023-01-25T08:48:01;6.57;;;4.70;;
6832;SDS011;3454;42.654;23.378;2023-01-25T08:50:29;9.20;;;5.40;;
6832;SDS011;3454;42.654;23.378;2023-01-25T08:53:01;7.30;;;5.23;;
6832;SDS011;3454;42.654;23.378;2023-01-25T08:55:27;6.40;;;4.60;;
6832;SDS011;3454;42.654;23.378;2023-01-25T08:57:52;6.17;;;4.47;;
6832;SDS011;3454;42.654;23.378;2023-01-25T09:00:18;6.90;;;4.73;;
6832;SDS011;3454;42.654;23.378;2023-01-25T09:02:44;7.40;;;5.03;;
6832;SDS011;3454;42.654;23.378;2023-01-25T09:05:09;6.57;;;4.83;;
6832;SDS011;3454;42.654;23.378;2023-01-25T09:07:34;8.27;;;4.97;;
6832;SDS011;3454;42.654;23.378;2023-01-25T09:10:05;10.83;;;6.10;;
6832;SDS011;3454;42.654;23.378;2023-01-25T09:12:33;8.03;;;5.00;;
6832;SDS011;3454;42.654;23.378;2023-01-25T09:14:59;5.33;;;4.20;;
6832;SDS011;3454;42.654;23.378;2023-01-25T09:17:24;9.20;;;5.00;;
6832;SDS011;3454;42.654;23.378;2023-01-25T09:19:49;7.47;;;4.43;;
6832;SDS011;3454;42.654;23.378;2023-01-25T09:22:15;7.77;;;5.00;;
6832;SDS011;3454;42.654;23.378;2023-01-25T09:24:40;10.37;;;5.10;;
6832;SDS011;3454;42.654;23.378;2023-01-25T09:27:06;7.97;;;5.47;;
6832;SDS011;3454;42.654;23.378;2023-01-25T09:29:31;12.73;;;5.77;;
6832;SDS011;3454;42.654;23.378;2023-01-25T09:31:57;11.97;;;6.10;;
6832;SDS011;3454;42.654;23.378;2023-01-25T09:34:22;9.33;;;4.67;;
6832;SDS011;3454;42.654;23.378;2023-01-25T09:36:47;7.77;;;4.57;;
6832;SDS011;3454;42.654;23.378;2023-01-25T09:39:13;4.80;;;3.77;;
6832;SDS011;3454;42.654;23.378;2023-01-25T09:55:29;7.30;;;3.50;;
6832;SDS011;3454;42.654;23.378;2023-01-25T09:57:57;5.57;;;4.07;;
6832;SDS011;3454;42.654;23.378;2023-01-25T10:00:39;5.80;;;4.00;;
6832;SDS011;3454;42.654;23.378;2023-01-25T10:05:50;5.20;;;3.87;;
6832;SDS011;3454;42.654;23.378;2023-01-25T10:11:26;6.10;;;4.00;;
6832;SDS011;3454;42.654;23.378;2023-01-25T10:13:54;6.67;;;4.17;;
6832;SDS011;3454;42.654;23.378;2023-01-25T10:16:25;6.40;;;4.37;;
6832;SDS011;3454;42.654;23.378;2023-01-25T10:21:43;5.67;;;4.13;;
6832;SDS011;3454;42.654;23.378;2023-01-25T10:26:48;5.47;;;3.97;;
6832;SDS011;3454;42.654;23.378;2023-01-25T10:29:21;5.97;;;4.30;;
6832;SDS011;3454;42.654;23.378;2023-01-25T10:32:04;4.97;;;3.50;;
6832;SDS011;3454;42.654;23.378;2023-01-25T10:34:39;6.73;;;3.80;;
6832;SDS011;3454;42.654;23.378;2023-01-25T10:37:15;4.13;;;3.07;;
6832;SDS011;3454;42.654;23.378;2023-01-25T10:40:12;6.63;;;3.30;;
6832;SDS011;3454;42.654;23.378;2023-01-25T10:42:40;7.43;;;2.83;;
6832;SDS011;3454;42.654;23.378;2023-01-25T10:45:11;3.43;;;3.10;;
6832;SDS011;3454;42.654;23.378;2023-01-25T10:47:39;6.43;;;3.30;;
6832;SDS011;3454;42.654;23.378;2023-01-25T10:50:08;6.77;;;3.63;;
6832;SDS011;3454;42.654;23.378;2023-01-25T10:52:34;5.03;;;3.30;;
6832;SDS011;3454;42.654;23.378;2023-01-25T10:57:48;7.07;;;3.53;;
6832;SDS011;3454;42.654;23.378;2023-01-25T11:02:47;4.30;;;2.70;;
6832;SDS011;3454;42.654;23.378;2023-01-25T11:07:51;6.30;;;2.83;;
6832;SDS011;3454;42.654;23.378;2023-01-25T11:10:33;3.03;;;2.63;;
6832;SDS011;3454;42.654;23.378;2023-01-25T11:16:29;4.70;;;3.50;;
6832;SDS011;3454;42.654;23.378;2023-01-25T11:18:51;4.07;;;3.60;;
6832;SDS011;3454;42.654;23.378;2023-01-25T11:21:22;5.20;;;3.60;;
6832;SDS011;3454;42.654;23.378;2023-01-25T11:26:23;3.63;;;3.23;;
6832;SDS011;3454;42.654;23.378;2023-01-25T11:28:49;6.20;;;4.43;;
6832;SDS011;3454;42.654;23.378;2023-01-25T11:31:23;3.70;;;3.23;;
6832;SDS011;3454;42.654;23.378;2023-01-25T11:33:50;3.73;;;2.67;;
6832;SDS011;3454;42.654;23.378;2023-01-25T11:47:03;4.50;;;3.17;;
6832;SDS011;3454;42.654;23.378;2023-01-25T11:49:47;6.73;;;3.47;;
6832;SDS011;3454;42.654;23.378;2023-01-25T11:55:43;6.83;;;3.90;;
6832;SDS011;3454;42.654;23.378;2023-01-25T12:01:40;4.90;;;3.43;;
6832;SDS011;3454;42.654;23.378;2023-01-25T12:14:55;4.97;;;3.60;;
6832;SDS011;3454;42.654;23.378;2023-01-25T12:17:48;5.17;;;3.30;;
6832;SDS011;3454;42.654;23.378;2023-01-25T12:28:20;5.40;;;3.57;;
6832;SDS011;3454;42.654;23.378;2023-01-25T12:36:08;4.50;;;3.73;;
6832;SDS011;3454;42.654;23.378;2023-01-25T12:41:47;7.17;;;3.50;;
6832;SDS011;3454;42.654;23.378;2023-01-25T12:47:19;3.87;;;3.27;;
6832;SDS011;3454;42.654;23.378;2023-01-25T12:50:24;6.97;;;3.77;;
6832;SDS011;3454;42.654;23.378;2023-01-25T12:52:46;4.57;;;3.57;;
6832;SDS011;3454;42.654;23.378;2023-01-25T12:55:15;3.60;;;3.17;;
6832;SDS011;3454;42.654;23.378;2023-01-25T13:07:06;4.13;;;3.60;;
6832;SDS011;3454;42.654;23.378;2023-01-25T13:10:03;5.70;;;4.07;;
6832;SDS011;3454;42.654;23.378;2023-01-25T13:12:25;5.73;;;3.67;;
6832;SDS011;3454;42.654;23.378;2023-01-25T13:14:51;6.80;;;3.27;;
6832;SDS011;3454;42.654;23.378;2023-01-25T13:17:29;6.33;;;3.60;;
6832;SDS011;3454;42.654;23.378;2023-01-25T13:19:56;4.67;;;3.60;;
6832;SDS011;3454;42.654;23.378;2023-01-25T13:25:20;4.30;;;3.60;;
6832;SDS011;3454;42.654;23.378;2023-01-25T13:27:47;5.77;;;3.57;;
6832;SDS011;3454;42.654;23.378;2023-01-25T13:33:02;3.63;;;2.93;;
6832;SDS011;3454;42.654;23.378;2023-01-25T13:35:32;6.77;;;3.87;;
6832;SDS011;3454;42.654;23.378;2023-01-25T13:38:02;7.97;;;4.07;;
6832;SDS011;3454;42.654;23.378;2023-01-25T13:40:40;5.83;;;4.10;;
6832;SDS011;3454;42.654;23.378;2023-01-25T13:43:18;6.53;;;4.50;;
6832;SDS011;3454;42.654;23.378;2023-01-25T13:45:47;5.57;;;3.63;;
6832;SDS011;3454;42.654;23.378;2023-01-25T13:48:16;6.60;;;4.20;;
6832;SDS011;3454;42.654;23.378;2023-01-25T13:50:56;5.03;;;3.83;;
6832;SDS011;3454;42.654;23.378;2023-01-25T13:53:25;5.03;;;3.70;;
6832;SDS011;3454;42.654;23.378;2023-01-25T13:55:55;6.33;;;3.70;;
6832;SDS011;3454;42.654;23.378;2023-01-25T13:58:25;5.30;;;3.80;;
6832;SDS011;3454;42.654;23.378;2023-01-25T14:03:39;3.17;;;2.87;;
6832;SDS011;3454;42.654;23.378;2023-01-25T14:06:29;5.57;;;4.00;;
6832;SDS011;3454;42.654;23.378;2023-01-25T14:08:57;7.07;;;4.27;;
6832;SDS011;3454;42.654;23.378;2023-01-25T14:11:28;7.53;;;4.27;;
6832;SDS011;3454;42.654;23.378;2023-01-25T14:14:02;6.27;;;4.17;;
6832;SDS011;3454;42.654;23.378;2023-01-25T14:16:41;6.80;;;4.30;;
6832;SDS011;3454;42.654;23.378;2023-01-25T14:19:20;11.43;;;3.87;;
6832;SDS011;3454;42.654;23.378;2023-01-25T14:24:39;18.43;;;4.20;;
6832;SDS011;3454;42.654;23.378;2023-01-25T14:27:05;7.00;;;4.07;;
6832;SDS011;3454;42.654;23.378;2023-01-25T14:29:31;6.90;;;4.77;;
6832;SDS011;3454;42.654;23.378;2023-01-25T14:32:01;8.57;;;4.83;;
6832;SDS011;3454;42.654;23.378;2023-01-25T14:34:27;6.17;;;4.83;;
6832;SDS011;3454;42.654;23.378;2023-01-25T14:37:05;7.73;;;4.97;;
6832;SDS011;3454;42.654;23.378;2023-01-25T14:39:39;6.97;;;5.80;;
6832;SDS011;3454;42.654;23.378;2023-01-25T14:42:04;6.70;;;5.33;;
6832;SDS011;3454;42.654;23.378;2023-01-25T14:44:30;9.43;;;5.67;;
6832;SDS011;3454;42.654;23.378;2023-01-25T14:55:48;8.30;;;5.13;;
6832;SDS011;3454;42.654;23.378;2023-01-25T14:58:16;8.93;;;5.20;;
6832;SDS011;3454;42.654;23.378;2023-01-25T15:00:57;8.10;;;4.73;;
6832;SDS011;3454;42.654;23.378;2023-01-25T15:03:25;9.90;;;5.80;;
6832;SDS011;3454;42.654;23.378;2023-01-25T15:05:52;10.57;;;6.40;;
6832;SDS011;3454;42.654;23.378;2023-01-25T15:08:28;11.07;;;5.70;;
6832;SDS011;3454;42.654;23.378;2023-01-25T15:11:00;12.87;;;5.60;;
6832;SDS011;3454;42.654;23.378;2023-01-25T15:13:45;7.67;;;5.30;;
6832;SDS011;3454;42.654;23.378;2023-01-25T15:16:11;10.47;;;4.70;;
6832;SDS011;3454;42.654;23.378;2023-01-25T15:18:43;11.90;;;5.07;;
6832;SDS011;3454;42.654;23.378;2023-01-25T15:21:09;8.47;;;5.27;;
6832;SDS011;3454;42.654;23.378;2023-01-25T15:23:48;7.43;;;4.80;;
6832;SDS011;3454;42.654;23.378;2023-01-25T15:29:10;7.43;;;4.47;;
6832;SDS011;3454;42.654;23.378;2023-01-25T15:31:38;6.53;;;4.27;;
6832;SDS011;3454;42.654;23.378;2023-01-25T15:34:04;7.00;;;4.60;;
6832;SDS011;3454;42.654;23.378;2023-01-25T15:36:31;8.57;;;4.53;;
6832;SDS011;3454;42.654;23.378;2023-01-25T15:38:57;8.07;;;4.53;;
6832;SDS011;3454;42.654;23.378;2023-01-25T15:41:23;10.23;;;5.70;;
6832;SDS011;3454;42.654;23.378;2023-01-25T15:43:48;6.63;;;4.53;;
6832;SDS011;3454;42.654;23.378;2023-01-25T15:46:21;8.77;;;4.70;;
6832;SDS011;3454;42.654;23.378;2023-01-25T15:48:49;8.50;;;5.37;;
6832;SDS011;3454;42.654;23.378;2023-01-25T15:51:15;8.93;;;4.70;;
6832;SDS011;3454;42.654;23.378;2023-01-25T15:53:42;7.40;;;4.77;;
6832;SDS011;3454;42.654;23.378;2023-01-25T15:56:18;10.67;;;5.73;;
6832;SDS011;3454;42.654;23.378;2023-01-25T15:58:52;6.83;;;4.83;;
6832;SDS011;3454;42.654;23.378;2023-01-25T16:01:20;9.93;;;4.70;;
6832;SDS011;3454;42.654;23.378;2023-01-25T16:03:46;9.50;;;5.13;;
6832;SDS011;3454;42.654;23.378;2023-01-25T16:06:32;8.53;;;5.00;;
6832;SDS011;3454;42.654;23.378;2023-01-25T16:11:45;10.37;;;4.97;;
6832;SDS011;3454;42.654;23.378;2023-01-25T16:14:12;13.40;;;6.13;;
6832;SDS011;3454;42.654;23.378;2023-01-25T16:16:39;9.57;;;5.67;;
6832;SDS011;3454;42.654;23.378;2023-01-25T16:19:08;12.40;;;5.43;;
6832;SDS011;3454;42.654;23.378;2023-01-25T16:21:38;9.20;;;5.20;;
6832;SDS011;3454;42.654;23.378;2023-01-25T16:24:03;8.37;;;4.73;;
6832;SDS011;3454;42.654;23.378;2023-01-25T16:26:29;8.17;;;4.63;;
6832;SDS011;3454;42.654;23.378;2023-01-25T16:28:55;10.50;;;5.00;;
6832;SDS011;3454;42.654;23.378;2023-01-25T16:31:20;8.00;;;4.87;;
6832;SDS011;3454;42.654;23.378;2023-01-25T16:33:46;6.80;;;4.37;;
6832;SDS011;3454;42.654;23.378;2023-01-25T16:38:42;7.33;;;4.43;;
6832;SDS011;3454;42.654;23.378;2023-01-25T16:41:08;7.77;;;4.33;;
6832;SDS011;3454;42.654;23.378;2023-01-25T16:43:44;9.33;;;5.07;;
6832;SDS011;3454;42.654;23.378;2023-01-25T16:46:14;5.53;;;4.23;;
6832;SDS011;3454;42.654;23.378;2023-01-25T16:48:42;7.47;;;5.10;;
6832;SDS011;3454;42.654;23.378;2023-01-25T16:51:26;8.13;;;4.23;;
6832;SDS011;3454;42.654;23.378;2023-01-25T16:53:53;8.77;;;5.63;;
6832;SDS011;3454;42.654;23.378;2023-01-25T16:56:22;10.63;;;5.43;;
6832;SDS011;3454;42.654;23.378;2023-01-25T16:58:56;10.77;;;5.90;;
6832;SDS011;3454;42.654;23.378;2023-01-25T17:01:24;8.30;;;5.37;;
6832;SDS011;3454;42.654;23.378;2023-01-25T17:03:52;7.37;;;4.43;;
6832;SDS011;3454;42.654;23.378;2023-01-25T17:06:28;9.00;;;5.30;;
6832;SDS011;3454;42.654;23.378;2023-01-25T17:08:56;9.90;;;5.60;;
6832;SDS011;3454;42.654;23.378;2023-01-25T17:11:23;10.33;;;5.37;;
6832;SDS011;3454;42.654;23.378;2023-01-25T17:13:49;8.67;;;6.17;;
6832;SDS011;3454;42.654;23.378;2023-01-25T17:16:17;8.20;;;4.93;;
6832;SDS011;3454;42.654;23.378;2023-01-25T17:18:43;9.13;;;5.27;;
6832;SDS011;3454;42.654;23.378;2023-01-25T17:21:09;8.10;;;5.50;;
6832;SDS011;3454;42.654;23.378;2023-01-25T17:23:39;12.23;;;5.57;;
6832;SDS011;3454;42.654;23.378;2023-01-25T17:26:06;8.03;;;5.13;;
6832;SDS011;3454;42.654;23.378;2023-01-25T17:28:33;7.57;;;5.10;;